Pagina principale
METAR-TAF:

METAR-TAF

Aeroporti :

Aeroporto di Piacenza-San Damiano

Piacenza, Italia

latitudine: 44-55N, longitudine: 009-44E, altezza: 134 m

Osservazione

Il bollettino è stato emesso 27 minuti fa, alle 07:55 UTC
Vento 2 kt da sud-ovest
Temperature 1°C
Umidità 100%
Pressione 1018 hPa
Visibilità 10 km o più
nessuna nube inferiore a 1500 m e nessun cumulonembo

METAR: LIMS 110755Z 23002KT CAVOK 01/01 Q1018 RMK FEW FEW200 VIS MIN 9999 WIND THR30 22002KT BLU

Ora: 09:22 (08:22 UTC)

Previsione

Il bollettino è stato emesso 2 ore e 32 minuti fa, alle 05:50 UTC
Previsione valida dal 11 alle 06 UTC al 11 alle 15 UTC
Vento 3 kt da direzioni variabili
Visibilità 10 km o più
nessuna nube inferiore a 1500 m e nessun cumulonembo

TAF: LIMS 110550Z 1106/1115 VRB03KT CAVOK

Osservazioni e previsioni meteorologiche di più di 4000 aeroporti (messaggi METAR e TAF).

Le stazioni disponibili sono rappresentate dai dischi gialli e rossi sulla carta.

Puntare il mouse per vedere il nome della stazione.

Clicca sopra per visualizzare le osservazioni e previsioni meteorologiche.

Per cambiare la mappa : fare clic sui pulsanti verdi con una croce nera per ingrandire, il pulsante verde con un trattino per diminuire, o sulla freccia verde per le mappe adiacenti.


METAR-TAF: